Monticello, Indiana
Current Conditions -  °F | °C
As of 9:35 AM on Monday 20 Oct 2014 (Local Time) from KMCX Reporting Station
Broken Clouds Broken Clouds  
Wind Chill: 53°   Ceiling: 8000
Heat Index: 53°   Visibility: 10mi
Dew Point: 47°   Wind: 10mph
Humidity: 82%   Direction: 220°SW
Pressure: 29.86"   Gusts: NA
Location:  40.76°N, 86.77°W
Report Text: KMCX 201335Z AUTO 22009KT 10SM SCT060 BKN080 BKN085 12/09 A2986 RMK AO2 T01160086
Loading
Personal Weather Stations






























Interactive Weather Map
Tropical Storm Tracking
New forecast layout! Learn more

10-Day Weather Forecast

Advertisements
Track Severe Weather on mobile